Terminal Aerodrome Forecast
Issued by NWS

Home | Current Version | Previous Version | Text Only | Print | Product List | Glossary On
Versions: 1 2 3 4 5 6 7 8 9 10 11 12 13 14 15
000
FTAK31 PAJN 291124
TAFAGY
TAF
PAGY 291124Z 2912/3012 04004KT P6SM VCSH BKN050 OVC110
     FM291500 VRB04KT P6SM -RA OVC050
     FM292200 21014G22KT P6SM VCSH OVC050
     FM300300 20010KT P6SM -RA OVC040
      AMD LTD TO CLD VIS AND WIND=

USA.gov is the U.S. government's official web portal to all federal, state and local government web resources and services.